Time;durP1;ratioP1;P1;durP2;ratioP2;P2;SDS_P1;SDS_P2;PMS_P1;PMS_P2;Temp;Humidity;BMP_temperature;BMP_pressure;BME280_temperature;BME280_humidity;BME280_pressure;Samples;Min_cycle;Max_cycle;Signal;HPM_P1;HPM_P2
2021/10/12 00:02:03;;;;;;;63.50;37.05;;;;;;;6.95;76.60;100640.23;1697749;82;26018;-83
2021/10/12 00:04:31;;;;;;;56.48;34.23;;;;;;;6.93;76.66;100638.23;1665468;81;25800;-83
2021/10/12 00:06:59;;;;;;;57.67;32.63;;;;;;;6.93;77.03;100631.58;1765296;80;25833;-83
2021/10/12 00:09:26;;;;;;;58.92;33.75;;;;;;;6.91;77.32;100624.74;1707476;81;25798;-83
2021/10/12 00:11:53;;;;;;;55.98;33.95;;;;;;;6.87;77.43;100621.58;1718322;80;27509;-84
2021/10/12 00:14:21;;;;;;;57.90;34.78;;;;;;;6.87;77.60;100620.25;1749099;79;25378;-83
2021/10/12 00:16:48;;;;;;;59.58;34.50;;;;;;;6.87;77.47;100620.25;1716069;80;25858;-83
2021/10/12 00:19:16;;;;;;;58.08;33.80;;;;;;;6.86;77.36;100619.90;1764274;80;25810;-84
2021/10/12 00:21:43;;;;;;;57.27;34.63;;;;;;;6.88;77.77;100612.61;1699733;80;25885;-83
2021/10/12 00:24:11;;;;;;;62.13;35.20;;;;;;;6.89;77.84;100612.09;1742506;80;28094;-83
2021/10/12 00:26:38;;;;;;;60.40;35.70;;;;;;;6.87;78.26;100604.77;1690831;80;25999;-83
2021/10/12 00:29:05;;;;;;;58.80;34.05;;;;;;;6.87;78.43;100603.44;1731873;79;25352;-83
2021/10/12 00:31:32;;;;;;;64.03;36.28;;;;;;;6.86;78.78;100599.93;1754895;80;26562;-84
2021/10/12 00:33:59;;;;;;;56.90;34.15;;;;;;;6.84;78.69;100595.80;1756952;80;25308;-83
2021/10/12 00:36:26;;;;;;;61.08;35.58;;;;;;;6.84;78.97;100593.13;1728191;80;27577;-84
2021/10/12 00:38:53;;;;;;;60.98;35.63;;;;;;;6.84;79.21;100585.95;1735031;81;26446;-83
2021/10/12 00:41:22;;;;;;;64.97;38.08;;;;;;;6.83;79.15;100588.30;1698831;80;25995;-83
2021/10/12 00:43:49;;;;;;;63.90;36.20;;;;;;;6.87;79.46;100585.64;1747615;81;26503;-84
2021/10/12 00:46:16;;;;;;;64.75;36.50;;;;;;;6.90;79.90;100583.16;1757772;80;25518;-84
2021/10/12 00:48:43;;;;;;;67.50;37.60;;;;;;;6.90;79.57;100584.48;1744388;80;27575;-83
2021/10/12 00:51:11;;;;;;;63.25;36.42;;;;;;;6.90;79.58;100581.33;1688688;81;25896;-83
2021/10/12 00:53:39;;;;;;;64.85;37.58;;;;;;;6.91;79.71;100580.81;1684015;81;26065;-83
2021/10/12 00:56:08;;;;;;;65.95;37.13;;;;;;;6.90;79.91;100580.00;1765499;80;25918;-83
2021/10/12 00:58:36;;;;;;;63.90;37.63;;;;;;;6.93;79.85;100579.66;1780115;79;25328;-83
2021/10/12 01:01:03;;;;;;;64.65;35.88;;;;;;;6.93;79.62;100572.16;1703890;80;27605;-83
2021/10/12 01:03:30;;;;;;;61.83;37.08;;;;;;;6.93;79.44;100566.83;1681303;80;25783;-83
2021/10/12 01:05:58;;;;;;;67.75;38.23;;;;;;;6.92;79.62;100563.36;1770232;80;26237;-83
2021/10/12 01:08:25;;;;;;;60.58;35.33;;;;;;;6.94;79.41;100563.19;1713977;80;25845;-84
2021/10/12 01:10:52;;;;;;;64.97;37.78;;;;;;;6.94;79.36;100560.03;1743963;81;25844;-84
2021/10/12 01:13:19;;;;;;;64.55;37.63;;;;;;;6.93;79.35;100554.84;1686402;82;27037;-83
2021/10/12 01:15:46;;;;;;;61.88;37.63;;;;;;;6.89;79.40;100554.35;1697294;81;25520;-83
2021/10/12 01:18:15;;;;;;;66.33;37.23;;;;;;;6.89;79.37;100553.02;1743706;81;25942;-83
2021/10/12 01:20:43;;;;;;;63.83;36.83;;;;;;;6.85;79.43;100550.36;1749245;81;25933;-83
2021/10/12 01:23:14;;;;;;;63.58;39.03;;;;;;;6.83;79.45;100555.50;1722011;81;25802;-83
2021/10/12 01:25:41;;;;;;;68.92;37.53;;;;;;;6.81;79.41;100553.02;1741702;81;27646;-83
2021/10/12 01:28:08;;;;;;;63.30;36.30;;;;;;;6.81;79.54;100554.34;1737806;81;25804;-82
2021/10/12 01:30:38;;;;;;;67.10;39.42;;;;;;;6.79;79.69;100547.52;1678764;81;26416;-83
2021/10/12 01:33:07;;;;;;;66.28;38.90;;;;;;;6.78;79.87;100553.33;1750855;81;26103;-82
2021/10/12 01:35:34;;;;;;;64.27;37.33;;;;;;;6.77;80.22;100547.69;1766879;80;26350;-83
2021/10/12 01:38:01;;;;;;;60.48;33.85;;;;;;;6.77;80.53;100545.52;1730514;81;28139;-83
2021/10/12 01:40:28;;;;;;;65.12;36.23;;;;;;;6.75;81.24;100542.19;1726054;81;25865;-82
2021/10/12 01:42:57;;;;;;;69.17;38.67;;;;;;;6.76;81.87;100542.02;1715352;82;25817;-83
2021/10/12 01:45:25;;;;;;;66.30;36.45;;;;;;;6.78;82.08;100539.18;1720103;81;26471;-83
2021/10/12 01:47:53;;;;;;;65.85;36.35;;;;;;;6.81;82.69;100539.70;1768775;79;25873;-83
2021/10/12 01:50:21;;;;;;;68.67;38.23;;;;;;;6.85;83.03;100534.88;1715180;82;28082;-82
2021/10/12 01:52:48;;;;;;;65.03;36.50;;;;;;;6.87;84.00;100535.55;1682339;82;25407;-82
2021/10/12 01:55:21;;;;;;;60.73;34.78;;;;;;;6.90;83.33;100533.89;1717790;82;25842;-83
2021/10/12 01:57:48;;;;;;;70.05;38.60;;;;;;;6.93;84.10;100529.55;1721644;81;26161;-83
2021/10/12 02:00:15;;;;;;;70.67;37.48;;;;;;;6.94;83.88;100528.56;1744804;81;25862;-83
2021/10/12 02:02:42;;;;;;;74.80;38.53;;;;;;;6.93;84.52;100527.73;1733848;81;27575;-83
2021/10/12 02:05:09;;;;;;;65.32;35.98;;;;;;;6.94;84.52;100526.75;1712051;81;25907;-83
2021/10/12 02:07:37;;;;;;;68.12;36.98;;;;;;;6.96;84.52;100527.41;1768582;80;25858;-82
2021/10/12 02:10:04;;;;;;;62.13;34.20;;;;;;;6.99;84.64;100523.59;1710376;80;25889;-83
2021/10/12 02:12:31;;;;;;;69.07;37.63;;;;;;;7.01;85.47;100529.06;1717566;80;25563;-84
2021/10/12 02:14:59;;;;;;;70.32;36.68;;;;;;;7.01;85.12;100518.41;1783603;78;27526;-83
2021/10/12 02:17:26;;;;;;;63.02;35.25;;;;;;;7.03;85.07;100518.27;1766862;80;26440;-82
2021/10/12 02:19:53;;;;;;;75.32;39.15;;;;;;;7.06;85.14;100517.11;1677025;80;25878;-84
2021/10/12 02:22:20;;;;;;;73.00;38.33;;;;;;;7.07;85.14;100519.59;1733005;81;25833;-83
2021/10/12 02:24:47;;;;;;;61.88;34.18;;;;;;;7.10;85.04;100513.11;1774334;79;25872;-83
2021/10/12 02:27:14;;;;;;;59.08;33.05;;;;;;;7.13;85.22;100508.77;1762288;80;27161;-83
2021/10/12 02:29:41;;;;;;;63.58;31.60;;;;;;;7.15;85.82;100508.94;1737194;81;26328;-82
2021/10/12 02:32:08;;;;;;;60.05;32.83;;;;;;;7.15;85.68;100509.42;1697998;82;25963;-83
2021/10/12 02:34:35;;;;;;;68.30;34.80;;;;;;;7.16;85.83;100509.28;1738102;80;25905;-83
2021/10/12 02:37:03;;;;;;;66.45;35.15;;;;;;;7.16;85.62;100505.28;1729178;81;26188;-82
2021/10/12 02:39:30;;;;;;;61.83;33.13;;;;;;;7.17;85.62;100504.27;1724267;82;27173;-83
2021/10/12 02:41:57;;;;;;;72.27;34.90;;;;;;;7.20;85.91;100505.77;1710103;81;25940;-83
2021/10/12 02:44:24;;;;;;;70.05;35.60;;;;;;;7.20;86.01;100502.62;1774301;79;25809;-83
2021/10/12 02:46:51;;;;;;;70.60;37.00;;;;;;;7.24;85.84;100500.44;1747201;81;25963;-83
2021/10/12 02:49:18;;;;;;;73.12;38.58;;;;;;;7.25;86.05;100498.13;1720949;82;25933;-83
2021/10/12 02:51:45;;;;;;;78.83;40.25;;;;;;;7.27;85.84;100495.59;1714569;82;27543;-82
2021/10/12 02:54:12;;;;;;;73.65;36.80;;;;;;;7.33;85.94;100503.44;1726171;79;25794;-84
2021/10/12 02:56:40;;;;;;;64.10;35.85;;;;;;;7.33;85.86;100497.61;1757183;79;26069;-83
2021/10/12 02:59:06;;;;;;;74.03;36.98;;;;;;;7.36;85.96;100496.42;1683572;81;26499;-83
2021/10/12 03:01:34;;;;;;;65.97;36.35;;;;;;;7.40;85.99;100495.11;1755173;81;25374;-83
2021/10/12 03:04:01;;;;;;;71.70;36.58;;;;;;;7.41;86.30;100488.76;1715590;81;27577;-84
2021/10/12 03:06:28;;;;;;;69.07;36.45;;;;;;;7.40;86.32;100488.45;1751189;80;25982;-83
2021/10/12 03:08:55;;;;;;;65.42;33.13;;;;;;;7.42;86.03;100485.11;1700586;81;25909;-82
2021/10/12 03:11:22;;;;;;;65.85;34.05;;;;;;;7.45;86.26;100486.09;1745943;81;25924;-83
2021/10/12 03:13:49;;;;;;;68.57;35.13;;;;;;;7.47;86.07;100488.92;1764986;79;25831;-83
2021/10/12 03:16:16;;;;;;;61.15;32.33;;;;;;;7.48;86.12;100483.09;1743719;80;28027;-84
2021/10/12 03:18:43;;;;;;;65.75;33.98;;;;;;;7.49;86.78;100480.25;1666084;81;25418;-83
2021/10/12 03:21:10;;;;;;;66.53;32.95;;;;;;;7.49;86.30;100478.92;1761213;79;25812;-83
2021/10/12 03:23:37;;;;;;;63.58;32.67;;;;;;;7.51;86.47;100474.74;1730197;81;26554;-83
2021/10/12 03:26:04;;;;;;;58.75;32.38;;;;;;;7.50;86.70;100481.09;1734009;81;25873;-84
2021/10/12 03:28:31;;;;;;;58.90;32.20;;;;;;;7.48;86.56;100477.77;1678353;82;27392;-84
2021/10/12 03:30:58;;;;;;;62.25;31.73;;;;;;;7.50;86.62;100483.27;1772575;79;25963;-83
2021/10/12 03:33:25;;;;;;;57.98;31.62;;;;;;;7.51;86.51;100473.41;1748109;81;25867;-83
2021/10/12 03:35:57;;;;;;;61.25;32.58;;;;;;;7.55;86.63;100477.39;1734420;81;26052;-84
2021/10/12 03:38:26;;;;;;;63.75;29.65;;;;;;;7.55;86.66;100470.23;1708677;81;25879;-84
2021/10/12 03:40:54;;;;;;;60.33;30.45;;;;;;;7.57;86.96;100470.89;1727607;81;27616;-83
2021/10/12 03:43:23;;;;;;;64.40;33.10;;;;;;;7.56;87.13;100468.41;1752219;81;25874;-83
2021/10/12 03:45:50;;;;;;;60.15;31.50;;;;;;;7.56;86.89;100459.92;1746437;80;25863;-83
2021/10/12 03:48:17;;;;;;;63.80;32.63;;;;;;;7.57;86.95;100453.57;1728429;81;25661;-83
2021/10/12 03:50:44;;;;;;;62.53;31.42;;;;;;;7.59;87.08;100451.56;1689756;82;25358;-84
2021/10/12 03:53:12;;;;;;;68.87;33.13;;;;;;;7.61;87.36;100454.08;1708773;82;27136;-84
2021/10/12 03:55:39;;;;;;;66.28;31.77;;;;;;;7.64;87.11;100457.23;1751908;81;25739;-83
2021/10/12 03:58:06;;;;;;;61.15;31.65;;;;;;;7.67;87.11;100460.89;1705431;82;26634;-83
2021/10/12 04:00:33;;;;;;;67.67;32.93;;;;;;;7.68;87.23;100451.04;1711510;82;26502;-80
2021/10/12 04:03:00;;;;;;;65.25;31.77;;;;;;;7.69;87.13;100452.22;1756696;81;25851;-83
2021/10/12 04:05:27;;;;;;;64.75;32.42;;;;;;;7.72;87.18;100454.53;1736749;80;28182;-83
2021/10/12 04:07:54;;;;;;;60.12;32.67;;;;;;;7.75;87.28;100449.36;1731899;81;25818;-83
2021/10/12 04:10:22;;;;;;;68.12;33.55;;;;;;;7.77;87.24;100452.19;1736323;80;25911;-83
2021/10/12 04:12:49;;;;;;;61.90;31.12;;;;;;;7.77;87.37;100450.86;1719006;81;26571;-83
2021/10/12 04:15:16;;;;;;;74.27;33.02;;;;;;;7.79;87.53;100448.84;1718530;81;25947;-83
2021/10/12 04:17:43;;;;;;;69.42;33.40;;;;;;;7.80;87.45;100448.35;1679523;81;27393;-83
2021/10/12 04:20:11;;;;;;;72.00;34.60;;;;;;;7.83;87.71;100441.84;1706291;82;25366;-83
2021/10/12 04:22:38;;;;;;;69.72;33.60;;;;;;;7.83;87.86;100449.84;1704275;81;26017;-83
2021/10/12 04:25:06;;;;;;;72.30;35.15;;;;;;;7.84;87.81;100448.83;1734118;81;25971;-83
2021/10/12 04:27:34;;;;;;;69.65;34.03;;;;;;;7.85;87.71;100438.50;1712382;81;25927;-83
2021/10/12 04:30:01;;;;;;;71.53;33.48;;;;;;;7.87;87.83;100440.49;1774352;80;27605;-82
2021/10/12 04:32:27;;;;;;;56.88;30.30;;;;;;;7.88;87.97;100434.14;1773565;79;25923;-83
2021/10/12 04:34:55;;;;;;;70.72;34.67;;;;;;;7.90;88.61;100432.12;1749491;80;25716;-83
2021/10/12 04:37:22;;;;;;;63.95;33.78;;;;;;;7.87;88.29;100418.63;1660590;82;26845;-83
2021/10/12 04:39:49;;;;;;;65.17;33.33;;;;;;;7.90;88.35;100421.46;1738317;82;25794;-83
2021/10/12 04:42:16;;;;;;;66.62;31.85;;;;;;;7.90;88.38;100415.63;1768504;79;27468;-83
2021/10/12 04:44:43;;;;;;;64.27;31.10;;;;;;;7.92;88.52;100415.45;1729140;82;25804;-84
2021/10/12 04:47:11;;;;;;;62.90;30.90;;;;;;;7.94;88.70;100408.10;1745818;81;25774;-83
2021/10/12 04:49:38;;;;;;;55.12;30.77;;;;;;;7.97;88.43;100407.77;1731907;81;26510;-83
2021/10/12 04:52:05;;;;;;;61.40;31.45;;;;;;;7.98;88.65;100403.58;1698823;81;25847;-83
2021/10/12 04:54:32;;;;;;;60.92;30.45;;;;;;;8.01;88.42;100407.74;1690756;81;28207;-84
2021/10/12 04:56:59;;;;;;;54.38;30.15;;;;;;;8.04;88.43;100406.08;1704084;83;25903;-83
2021/10/12 04:59:26;;;;;;;49.25;29.35;;;;;;;8.03;88.72;100405.23;1676577;83;25861;-83
2021/10/12 05:01:53;;;;;;;51.98;28.95;;;;;;;8.06;88.48;100413.39;1702231;81;25885;-83
2021/10/12 05:04:21;;;;;;;54.03;28.12;;;;;;;8.07;88.63;100411.88;1700711;82;25884;-83
2021/10/12 05:06:48;;;;;;;57.45;29.50;;;;;;;8.09;88.49;100410.36;1763497;80;27507;-83
2021/10/12 05:09:15;;;;;;;56.08;29.57;;;;;;;8.10;88.71;100406.20;1772203;79;25794;-83
2021/10/12 05:11:42;;;;;;;53.52;28.95;;;;;;;8.11;88.64;100409.18;1708393;82;26514;-83
2021/10/12 05:14:09;;;;;;;56.20;29.67;;;;;;;8.12;88.78;100401.52;1724086;81;25683;-83
2021/10/12 05:16:36;;;;;;;50.78;29.12;;;;;;;8.15;88.70;100403.82;1764910;79;26529;-84
2021/10/12 05:19:04;;;;;;;48.78;27.75;;;;;;;8.17;88.71;100402.33;1731881;80;27631;-83
2021/10/12 05:21:32;;;;;;;52.03;27.52;;;;;;;8.18;88.64;100407.48;1703155;82;25875;-84
2021/10/12 05:24:00;;;;;;;50.90;27.73;;;;;;;8.19;88.63;100410.47;1700321;82;26614;-83
2021/10/12 05:26:27;;;;;;;48.85;28.23;;;;;;;8.24;88.70;100407.27;1710698;81;25870;-84
2021/10/12 05:28:54;;;;;;;50.55;26.97;;;;;;;8.24;88.54;100404.60;1703571;81;25886;-83
2021/10/12 05:31:23;;;;;;;52.83;26.73;;;;;;;8.25;88.63;100400.48;1701249;82;28360;-84
2021/10/12 05:33:50;;;;;;;46.70;26.55;;;;;;;8.29;88.68;100400.95;1683371;84;25351;-80
2021/10/12 05:36:19;;;;;;;49.95;26.23;;;;;;;8.30;88.93;100403.42;1738506;81;25911;-83
2021/10/12 05:38:47;;;;;;;46.75;25.62;;;;;;;8.31;88.57;100404.27;1730193;81;25855;-83
2021/10/12 05:41:14;;;;;;;48.42;25.88;;;;;;;8.32;88.48;100406.75;1670705;82;26482;-82
2021/10/12 05:43:41;;;;;;;45.60;27.07;;;;;;;8.34;88.47;100406.59;1679465;81;27330;-84
2021/10/12 05:46:08;;;;;;;44.20;25.77;;;;;;;8.35;88.47;100404.23;1740772;80;25553;-84
2021/10/12 05:48:35;;;;;;;43.02;25.32;;;;;;;8.36;88.22;100400.05;1722213;81;25858;-83
2021/10/12 05:51:02;;;;;;;41.42;24.05;;;;;;;8.40;88.08;100403.21;1703384;82;26681;-83
2021/10/12 05:53:43;;;;;;;39.40;25.00;;;;;;;8.44;87.96;100396.50;1705110;81;25852;-83
2021/10/12 05:56:06;;;;;;;44.45;24.82;;;;;;;8.46;87.97;100401.16;1755519;81;28361;-83
2021/10/12 05:58:41;;;;;;;41.10;24.32;;;;;;;8.48;87.90;100401.81;1713206;79;26024;-84
2021/10/12 06:01:01;;;;;;;38.80;24.18;;;;;;;8.50;87.80;100405.97;1715355;82;26036;-83
2021/10/12 06:03:29;;;;;;;43.55;24.00;;;;;;;8.52;87.79;100402.61;1683725;82;26017;-84
2021/10/12 06:05:56;;;;;;;33.13;20.08;;;;;;;8.55;87.75;100404.10;1764546;80;25797;-83
2021/10/12 06:08:23;;;;;;;25.70;15.65;;;;;;;8.55;87.18;100397.43;1706856;80;27564;-83
2021/10/12 06:10:50;;;;;;;30.70;20.50;;;;;;;8.55;87.44;100396.09;1759992;80;25900;-84
2021/10/12 06:13:18;;;;;;;32.83;20.97;;;;;;;8.55;87.07;100398.77;1662140;81;37871;-83
2021/10/12 06:15:46;;;;;;;35.28;19.27;;;;;;;8.59;87.04;100396.55;1762891;79;25809;-82
2021/10/12 06:18:13;;;;;;;39.33;21.87;;;;;;;8.62;87.21;100392.20;1765717;80;25901;-84
2021/10/12 06:20:40;;;;;;;39.75;23.32;;;;;;;8.64;87.06;100399.53;1755705;79;27574;-83
2021/10/12 06:23:09;;;;;;;38.48;22.67;;;;;;;8.67;87.09;100397.82;1678572;80;25975;-83
2021/10/12 06:25:36;;;;;;;31.75;21.15;;;;;;;8.70;87.13;100400.98;1764097;80;25827;-84
2021/10/12 06:28:05;;;;;;;35.78;21.75;;;;;;;8.72;87.03;100399.45;1766018;80;25871;-83
2021/10/12 06:30:33;;;;;;;38.88;21.73;;;;;;;8.73;87.04;100399.27;1745607;81;25903;-83
2021/10/12 06:33:01;;;;;;;40.63;22.10;;;;;;;8.75;86.99;100402.59;1699872;81;27592;-82
2021/10/12 06:35:29;;;;;;;34.67;20.03;;;;;;;8.77;86.85;100398.42;1740042;81;26513;-81
2021/10/12 06:37:59;;;;;;;30.52;18.82;;;;;;;8.79;86.89;100402.55;1743885;81;25784;-83
2021/10/12 06:40:27;;;;;;;33.40;17.02;;;;;;;8.88;86.87;100402.81;1724412;81;25833;-83
2021/10/12 06:42:54;;;;;;;25.70;15.55;;;;;;;8.96;86.73;100404.07;1677407;82;25940;-83
2021/10/12 06:45:22;;;;;;;25.75;16.12;;;;;;;8.98;85.89;100409.25;1744427;80;27501;-83
2021/10/12 06:47:50;;;;;;;32.25;17.85;;;;;;;8.99;85.56;100409.56;1741471;81;25856;-84
2021/10/12 06:50:19;;;;;;;27.00;15.13;;;;;;;9.02;85.55;100411.88;1738700;81;26461;-83
2021/10/12 06:52:47;;;;;;;29.65;17.35;;;;;;;9.04;85.07;100418.71;1679948;81;26365;-83
2021/10/12 06:55:15;;;;;;;29.20;17.67;;;;;;;9.05;84.91;100412.84;1758130;81;25846;-83
2021/10/12 06:57:43;;;;;;;48.90;26.37;;;;;;;9.07;84.75;100422.84;1744910;81;27623;-83
2021/10/12 07:00:13;;;;;;;40.78;26.55;;;;;;;9.07;84.62;100422.34;1731042;80;26516;-84
2021/10/12 07:02:42;;;;;;;47.73;32.03;;;;;;;9.10;84.77;100422.48;1689270;81;25873;-83
2021/10/12 07:05:10;;;;;;;43.10;25.88;;;;;;;9.10;84.89;100419.31;1704947;81;25903;-83
2021/10/12 07:07:37;;;;;;;29.05;18.50;;;;;;;9.12;84.79;100423.97;1709040;82;25933;-83
2021/10/12 07:10:10;;;;;;;23.75;14.80;;;;;;;9.11;83.73;100421.48;1706351;81;27422;-82
2021/10/12 07:12:39;;;;;;;22.95;14.83;;;;;;;9.12;83.95;100428.48;1703328;81;25888;-83
2021/10/12 07:15:07;;;;;;;18.73;12.50;;;;;;;9.15;83.55;100428.13;1725286;81;25802;-82
2021/10/12 07:17:34;;;;;;;19.48;11.20;;;;;;;9.17;83.45;100426.91;1748129;81;25827;-82
2021/10/12 07:20:02;;;;;;;17.20;11.45;;;;;;;9.20;82.89;100427.06;1729295;81;26591;-82
2021/10/12 07:22:29;;;;;;;19.70;11.75;;;;;;;9.25;83.02;100423.34;1677544;81;27377;-82
2021/10/12 07:24:57;;;;;;;22.75;12.28;;;;;;;9.31;82.59;100423.95;1740201;81;25395;-83
2021/10/12 07:27:24;;;;;;;18.35;11.80;;;;;;;9.33;82.17;100425.92;1755793;80;26436;-83
2021/10/12 07:29:53;;;;;;;22.10;13.15;;;;;;;9.32;81.84;100417.59;1695566;81;25919;-83
2021/10/12 07:32:20;;;;;;;20.35;12.18;;;;;;;9.34;82.01;100426.27;1709160;82;25833;-84
2021/10/12 07:34:48;;;;;;;19.67;13.45;;;;;;;9.36;82.01;100423.40;1733258;81;28227;-83
2021/10/12 07:37:15;;;;;;;18.12;11.73;;;;;;;9.36;82.05;100416.22;1705920;82;25364;-84
2021/10/12 07:39:42;;;;;;;18.87;10.93;;;;;;;9.39;82.14;100415.83;1693969;82;26477;-84
2021/10/12 07:42:11;;;;;;;18.42;10.45;;;;;;;9.42;81.65;100416.81;1688024;81;25826;-84
2021/10/12 07:44:40;;;;;;;14.87;9.70;;;;;;;9.44;81.74;100417.45;1749810;81;25791;-83
2021/10/12 07:47:08;;;;;;;18.40;7.83;;;;;;;9.49;81.46;100411.06;1746337;81;28226;-83
2021/10/12 07:49:36;;;;;;;13.28;6.03;;;;;;;9.51;80.59;100421.06;1729408;80;25894;-83
2021/10/12 07:52:07;;;;;;;8.28;4.75;;;;;;;9.51;79.91;100411.70;1727771;81;26406;-83
2021/10/12 07:54:46;;;;;;;9.60;4.72;;;;;;;9.52;79.59;100412.52;1749323;79;25952;-83
2021/10/12 07:57:15;;;;;;;14.65;7.62;;;;;;;9.56;78.94;100412.50;1748870;80;26447;-84
2021/10/12 07:59:43;;;;;;;12.45;5.97;;;;;;;9.58;78.97;100413.95;1730841;81;27451;-84
2021/10/12 08:02:16;;;;;;;8.13;4.40;;;;;;;9.60;78.24;100414.59;1702566;81;26520;-83
2021/10/12 08:04:43;;;;;;;6.87;4.90;;;;;;;9.59;78.10;100409.44;1742425;81;25822;-84
2021/10/12 08:07:10;;;;;;;8.70;4.85;;;;;;;9.60;77.96;100401.22;1757805;81;25770;-83
2021/10/12 08:09:37;;;;;;;8.53;4.70;;;;;;;9.60;77.96;100401.22;1697593;81;25866;-84
2021/10/12 08:12:06;;;;;;;9.73;5.28;;;;;;;9.62;77.56;100397.88;1736998;80;28694;-84
2021/10/12 08:14:39;;;;;;;10.03;5.67;;;;;;;9.62;78.06;100393.88;1751484;79;25783;-84
2021/10/12 08:17:04;;;;;;;7.17;4.85;;;;;;;9.67;78.12;100387.44;1717841;81;25855;-83
2021/10/12 08:19:33;;;;;;;13.80;5.20;;;;;;;9.78;78.17;100391.48;1723641;81;26024;-84
2021/10/12 08:22:02;;;;;;;7.22;4.33;;;;;;;9.88;77.86;100394.72;1672403;82;26448;-83
2021/10/12 08:24:30;;;;;;;6.25;3.80;;;;;;;9.94;77.89;100385.94;1724511;80;28155;-84
2021/10/12 08:26:57;;;;;;;7.37;4.08;;;;;;;9.93;75.96;100381.09;1722057;81;25920;-83
2021/10/12 08:29:26;;;;;;;6.15;3.77;;;;;;;9.92;76.30;100387.97;1718261;82;25837;-85
2021/10/12 08:31:52;;;;;;;9.00;4.78;;;;;;;9.90;76.17;100377.97;1728329;80;25832;-84
2021/10/12 08:34:19;;;;;;;9.10;4.25;;;;;;;9.92;75.97;100386.63;1733943;81;25836;-84
2021/10/12 08:36:47;;;;;;;7.72;3.83;;;;;;;9.94;75.59;100376.57;1763171;81;27529;-84
2021/10/12 08:39:14;;;;;;;10.28;3.72;;;;;;;9.97;74.50;100384.20;1723561;81;25931;-84
2021/10/12 08:41:55;;;;;;;6.87;3.80;;;;;;;9.97;75.42;100375.67;1702558;81;26019;-85
2021/10/12 08:44:22;;;;;;;7.05;3.33;;;;;;;10.04;75.30;100388.63;1732147;81;25931;-83
2021/10/12 08:46:49;;;;;;;6.78;3.25;;;;;;;10.06;74.43;100387.94;1727899;82;25919;-84
2021/10/12 08:49:16;;;;;;;8.98;3.42;;;;;;;10.10;74.54;100385.70;1723936;82;27501;-84
2021/10/12 08:51:44;;;;;;;9.00;3.87;;;;;;;10.16;75.01;100380.15;1659447;82;26088;-84
2021/10/12 08:54:12;;;;;;;7.75;3.72;;;;;;;10.21;74.39;100383.91;1720645;82;25391;-84
2021/10/12 08:56:39;;;;;;;6.05;3.77;;;;;;;10.22;74.13;100389.59;1751409;81;26482;-85
2021/10/12 08:59:06;;;;;;;5.35;2.70;;;;;;;10.19;72.73;100379.75;1699008;82;25889;-84
2021/10/12 09:01:57;;;;;;;6.92;3.20;;;;;;;10.17;72.17;100384.47;1707788;82;27148;-83
2021/10/12 09:04:25;;;;;;;5.53;3.00;;;;;;;10.17;73.06;100377.77;1704853;82;25982;-85
2021/10/12 09:06:58;;;;;;;7.45;3.00;;;;;;;10.23;72.95;100379.19;1759650;81;26422;-86
2021/10/12 09:09:36;;;;;;;8.30;2.50;;;;;;;10.26;72.27;100379.33;1719429;80;25940;-86
2021/10/12 09:12:03;;;;;;;13.10;6.25;;;;;;;10.29;72.30;100381.09;1710769;81;25916;-85
2021/10/12 09:14:30;;;;;;;7.55;4.75;;;;;;;10.39;71.35;100370.90;1710365;80;27632;-86
2021/10/12 09:17:05;;;;;;;12.93;4.22;;;;;;;10.49;71.81;100365.23;1742338;81;25325;-84
2021/10/12 09:19:34;;;;;;;3.77;3.20;;;;;;;10.60;71.43;100364.23;1694705;81;26000;-84
2021/10/12 09:22:05;;;;;;;4.78;3.47;;;;;;;10.65;70.82;100365.80;1700808;82;25834;-84
2021/10/12 09:24:39;;;;;;;28.73;14.03;;;;;;;10.71;71.65;100359.66;1730333;80;25867;-85
2021/10/12 09:27:14;;;;;;;8.13;5.20;;;;;;;10.78;71.04;100361.89;1760315;81;28146;-85
2021/10/12 09:29:47;;;;;;;9.55;4.83;;;;;;;10.76;70.16;100355.06;1704667;79;25851;-83
2021/10/12 09:32:09;;;;;;;10.10;4.70;;;;;;;10.74;70.02;100351.75;1703662;82;25804;-83
2021/10/12 09:34:41;;;;;;;6.40;3.65;;;;;;;10.72;70.84;100350.61;1729257;81;26481;-84
2021/10/12 09:37:09;;;;;;;6.42;3.25;;;;;;;10.71;70.36;100352.16;1747965;81;25338;-84
2021/10/12 09:39:47;;;;;;;5.65;3.10;;;;;;;10.69;70.48;100348.84;1727482;82;27535;-84
2021/10/12 09:42:16;;;;;;;9.25;3.20;;;;;;;10.68;70.23;100348.02;1693209;82;25843;-84
2021/10/12 09:44:59;;;;;;;7.87;2.80;;;;;;;10.71;70.01;100352.96;1727826;81;25959;-84
2021/10/12 09:47:27;;;;;;;5.20;2.35;;;;;;;10.77;70.45;100350.88;1756749;81;25779;-84
2021/10/12 09:50:13;;;;;;;3.70;2.20;;;;;;;10.82;68.81;100349.77;1720084;82;25875;-84
2021/10/12 09:52:45;;;;;;;5.35;2.33;;;;;;;10.88;68.94;100337.45;1725657;81;27574;-85
2021/10/12 09:55:12;;;;;;;6.97;2.10;;;;;;;10.99;69.69;100341.45;1730314;80;31101;-84
2021/10/12 09:57:41;;;;;;;6.22;2.47;;;;;;;11.09;68.97;100340.58;1729748;80;25851;-83
2021/10/12 10:00:09;;;;;;;6.33;2.10;;;;;;;11.14;67.75;100329.57;1727737;82;25825;-84
2021/10/12 10:02:39;;;;;;;4.72;2.55;;;;;;;11.26;68.35;100321.81;1725463;81;26775;-83
2021/10/12 10:05:08;;;;;;;6.72;2.70;;;;;;;11.26;68.35;100321.81;1731871;80;27593;-84
2021/10/12 10:07:43;;;;;;;10.48;4.33;;;;;;;11.34;68.25;100322.98;1745412;79;26117;-84
2021/10/12 10:10:10;;;;;;;11.22;5.72;;;;;;;11.41;67.58;100313.13;1748414;81;25283;-84
2021/10/12 10:12:37;;;;;;;4.97;2.75;;;;;;;11.48;66.15;100317.48;1680235;81;25981;-84
2021/10/12 10:15:05;;;;;;;6.95;3.02;;;;;;;11.55;66.76;100313.49;1722635;82;25884;-84
2021/10/12 10:17:32;;;;;;;6.28;2.50;;;;;;;11.66;66.97;100314.27;1755628;81;27503;-84
2021/10/12 10:20:05;;;;;;;4.78;1.92;;;;;;;11.75;65.28;100312.27;1699070;81;25818;-85
2021/10/12 10:22:56;;;;;;;6.70;2.55;;;;;;;11.78;65.28;100308.69;1697183;81;25750;-85
2021/10/12 10:25:40;;;;;;;5.05;2.80;;;;;;;11.85;64.43;100308.17;1763066;80;25831;-85
2021/10/12 10:28:23;;;;;;;5.47;2.08;;;;;;;11.90;63.58;100306.23;1764484;79;25920;-84
2021/10/12 10:31:00;;;;;;;6.45;2.72;;;;;;;11.90;62.56;100298.17;1735948;81;27309;-84
2021/10/12 10:33:31;;;;;;;12.47;5.97;;;;;;;11.97;64.25;100300.38;1703180;81;25381;-84
2021/10/12 10:36:02;;;;;;;6.17;3.33;;;;;;;12.06;64.19;100305.33;1722108;80;25930;-85
2021/10/12 10:38:50;;;;;;;7.10;2.47;;;;;;;12.09;63.46;100300.08;1755291;80;25812;-85
2021/10/12 10:41:19;;;;;;;5.33;2.00;;;;;;;12.10;63.49;100304.44;1724258;81;26472;-85
2021/10/12 10:43:56;;;;;;;4.95;2.10;;;;;;;12.07;63.17;100294.92;1730989;80;27481;-85
2021/10/12 10:46:38;;;;;;;5.62;2.30;;;;;;;12.10;62.89;100296.38;1723798;81;25874;-85
2021/10/12 10:49:20;;;;;;;3.47;2.45;;;;;;;12.17;60.29;100288.63;1746319;81;25755;-84
2021/10/12 10:52:04;;;;;;;6.65;2.90;;;;;;;12.18;62.29;100292.98;1735827;81;26224;-85
2021/10/12 10:54:43;;;;;;;4.25;3.20;;;;;;;12.24;63.14;100290.82;1703670;80;25953;-85
2021/10/12 10:57:18;;;;;;;6.35;3.22;;;;;;;12.30;60.66;100283.79;1692176;82;28205;-85
2021/10/12 10:59:48;;;;;;;7.05;3.55;;;;;;;12.20;60.96;100288.23;1758291;81;25281;-84
2021/10/12 11:02:33;;;;;;;6.80;2.83;;;;;;;12.05;60.95;100292.13;1708102;81;25711;-84
2021/10/12 11:05:01;;;;;;;7.30;3.05;;;;;;;11.97;61.99;100293.66;1731523;81;25342;-85
2021/10/12 11:07:29;;;;;;;4.58;2.83;;;;;;;11.98;62.24;100293.95;1733226;80;25826;-85
2021/10/12 11:09:58;;;;;;;6.97;3.80;;;;;;;12.04;62.68;100283.23;1740522;80;28270;-85
2021/10/12 11:12:29;;;;;;;12.43;4.50;;;;;;;12.14;63.46;100281.52;1702758;81;26376;-85
2021/10/12 11:15:07;;;;;;;9.93;4.53;;;;;;;12.25;63.03;100279.56;1699775;81;26868;-84
2021/10/12 11:17:36;;;;;;;11.75;5.33;;;;;;;12.38;63.30;100283.07;1734480;80;27149;-85
2021/10/12 11:20:14;;;;;;;9.50;4.55;;;;;;;12.48;62.55;100280.50;1718961;82;26037;-84
2021/10/12 11:22:44;;;;;;;8.23;4.62;;;;;;;12.47;61.87;100281.55;1722061;82;27460;-84
2021/10/12 11:25:12;;;;;;;9.93;5.72;;;;;;;12.42;63.09;100277.30;1675951;82;25854;-84
2021/10/12 11:27:46;;;;;;;7.60;5.28;;;;;;;12.49;63.19;100274.11;1704092;81;25867;-85